sensor_id;sensor_type;location;lat;lon;timestamp;P1;durP1;ratioP1;P2;durP2;ratioP2
35877;SDS011;21982;49.804;24.072;2024-03-08T00:01:40;24.00;;;12.32;;
35877;SDS011;21982;49.804;24.072;2024-03-08T00:04:05;23.67;;;11.65;;
35877;SDS011;21982;49.804;24.072;2024-03-08T00:06:31;23.27;;;11.07;;
35877;SDS011;21982;49.804;24.072;2024-03-08T00:08:58;24.75;;;11.88;;
35877;SDS011;21982;49.804;24.072;2024-03-08T00:11:24;22.55;;;12.52;;
35877;SDS011;21982;49.804;24.072;2024-03-08T00:13:52;24.10;;;11.25;;
35877;SDS011;21982;49.804;24.072;2024-03-08T00:16:18;25.98;;;11.07;;
35877;SDS011;21982;49.804;24.072;2024-03-08T00:18:48;22.30;;;10.00;;
35877;SDS011;21982;49.804;24.072;2024-03-08T00:21:14;21.42;;;12.05;;
35877;SDS011;21982;49.804;24.072;2024-03-08T00:23:40;22.40;;;10.75;;
35877;SDS011;21982;49.804;24.072;2024-03-08T00:26:06;20.02;;;11.07;;
35877;SDS011;21982;49.804;24.072;2024-03-08T00:28:32;21.75;;;10.70;;
35877;SDS011;21982;49.804;24.072;2024-03-08T00:30:59;21.33;;;10.75;;
35877;SDS011;21982;49.804;24.072;2024-03-08T00:33:25;24.38;;;11.32;;
35877;SDS011;21982;49.804;24.072;2024-03-08T00:35:50;20.77;;;10.52;;
35877;SDS011;21982;49.804;24.072;2024-03-08T00:38:16;22.50;;;11.20;;
35877;SDS011;21982;49.804;24.072;2024-03-08T00:40:41;20.40;;;10.23;;
35877;SDS011;21982;49.804;24.072;2024-03-08T00:43:07;23.98;;;10.93;;
35877;SDS011;21982;49.804;24.072;2024-03-08T00:45:33;23.52;;;12.55;;
35877;SDS011;21982;49.804;24.072;2024-03-08T00:47:59;23.45;;;10.93;;
35877;SDS011;21982;49.804;24.072;2024-03-08T00:50:25;22.83;;;11.05;;
35877;SDS011;21982;49.804;24.072;2024-03-08T00:52:50;24.25;;;10.88;;
35877;SDS011;21982;49.804;24.072;2024-03-08T00:55:16;22.45;;;11.55;;
35877;SDS011;21982;49.804;24.072;2024-03-08T00:57:41;18.50;;;9.25;;
35877;SDS011;21982;49.804;24.072;2024-03-08T01:00:07;25.00;;;12.13;;
35877;SDS011;21982;49.804;24.072;2024-03-08T01:02:36;22.52;;;10.77;;
35877;SDS011;21982;49.804;24.072;2024-03-08T01:05:03;22.98;;;11.55;;
35877;SDS011;21982;49.804;24.072;2024-03-08T01:07:33;21.30;;;12.07;;
35877;SDS011;21982;49.804;24.072;2024-03-08T01:10:00;21.35;;;10.93;;
35877;SDS011;21982;49.804;24.072;2024-03-08T01:12:26;19.33;;;10.63;;
35877;SDS011;21982;49.804;24.072;2024-03-08T01:14:51;19.02;;;9.18;;
35877;SDS011;21982;49.804;24.072;2024-03-08T01:17:16;19.05;;;11.68;;
35877;SDS011;21982;49.804;24.072;2024-03-08T01:19:43;21.20;;;10.65;;
35877;SDS011;21982;49.804;24.072;2024-03-08T01:22:11;22.73;;;11.07;;
35877;SDS011;21982;49.804;24.072;2024-03-08T01:24:36;22.80;;;10.65;;
35877;SDS011;21982;49.804;24.072;2024-03-08T01:27:02;22.77;;;11.80;;
35877;SDS011;21982;49.804;24.072;2024-03-08T01:29:28;21.80;;;10.90;;
35877;SDS011;21982;49.804;24.072;2024-03-08T01:31:54;25.52;;;12.05;;
35877;SDS011;21982;49.804;24.072;2024-03-08T01:34:21;25.05;;;11.35;;
35877;SDS011;21982;49.804;24.072;2024-03-08T01:36:48;19.77;;;9.65;;
35877;SDS011;21982;49.804;24.072;2024-03-08T01:39:13;20.15;;;10.45;;
35877;SDS011;21982;49.804;24.072;2024-03-08T01:41:39;24.92;;;10.82;;
35877;SDS011;21982;49.804;24.072;2024-03-08T01:44:05;19.27;;;10.10;;
35877;SDS011;21982;49.804;24.072;2024-03-08T01:46:32;21.85;;;10.75;;
35877;SDS011;21982;49.804;24.072;2024-03-08T01:48:59;20.17;;;10.07;;
35877;SDS011;21982;49.804;24.072;2024-03-08T01:51:25;20.40;;;10.05;;
35877;SDS011;21982;49.804;24.072;2024-03-08T01:53:53;26.92;;;10.07;;
35877;SDS011;21982;49.804;24.072;2024-03-08T01:56:22;19.33;;;10.75;;
35877;SDS011;21982;49.804;24.072;2024-03-08T01:58:50;19.73;;;10.23;;
35877;SDS011;21982;49.804;24.072;2024-03-08T02:01:16;21.50;;;10.35;;
35877;SDS011;21982;49.804;24.072;2024-03-08T02:03:41;21.23;;;10.45;;
35877;SDS011;21982;49.804;24.072;2024-03-08T02:06:09;22.20;;;10.40;;
35877;SDS011;21982;49.804;24.072;2024-03-08T02:08:36;22.05;;;11.75;;
35877;SDS011;21982;49.804;24.072;2024-03-08T02:11:03;23.73;;;11.13;;
35877;SDS011;21982;49.804;24.072;2024-03-08T02:13:29;18.13;;;9.82;;
35877;SDS011;21982;49.804;24.072;2024-03-08T02:15:55;22.05;;;10.27;;
35877;SDS011;21982;49.804;24.072;2024-03-08T02:18:24;22.75;;;11.68;;
35877;SDS011;21982;49.804;24.072;2024-03-08T02:20:50;21.27;;;10.57;;
35877;SDS011;21982;49.804;24.072;2024-03-08T02:23:27;21.45;;;11.27;;
35877;SDS011;21982;49.804;24.072;2024-03-08T02:25:53;27.02;;;15.00;;
35877;SDS011;21982;49.804;24.072;2024-03-08T02:28:20;25.40;;;14.65;;
35877;SDS011;21982;49.804;24.072;2024-03-08T02:30:46;29.45;;;15.93;;
35877;SDS011;21982;49.804;24.072;2024-03-08T02:33:15;27.73;;;15.27;;
35877;SDS011;21982;49.804;24.072;2024-03-08T02:35:42;26.40;;;15.30;;
35877;SDS011;21982;49.804;24.072;2024-03-08T02:38:10;29.05;;;15.52;;
35877;SDS011;21982;49.804;24.072;2024-03-08T02:40:47;29.10;;;15.15;;
35877;SDS011;21982;49.804;24.072;2024-03-08T02:43:15;27.17;;;15.20;;
35877;SDS011;21982;49.804;24.072;2024-03-08T02:45:42;30.73;;;15.23;;
35877;SDS011;21982;49.804;24.072;2024-03-08T02:48:09;31.15;;;16.67;;
35877;SDS011;21982;49.804;24.072;2024-03-08T02:50:36;28.67;;;16.23;;
35877;SDS011;21982;49.804;24.072;2024-03-08T02:53:02;26.48;;;13.68;;
35877;SDS011;21982;49.804;24.072;2024-03-08T02:55:28;23.15;;;11.68;;
35877;SDS011;21982;49.804;24.072;2024-03-08T02:57:54;24.30;;;11.70;;
35877;SDS011;21982;49.804;24.072;2024-03-08T03:00:21;27.60;;;11.70;;
35877;SDS011;21982;49.804;24.072;2024-03-08T03:02:51;21.40;;;11.63;;
35877;SDS011;21982;49.804;24.072;2024-03-08T03:05:21;20.23;;;11.57;;
35877;SDS011;21982;49.804;24.072;2024-03-08T03:07:49;23.48;;;10.52;;
35877;SDS011;21982;49.804;24.072;2024-03-08T03:10:16;18.73;;;10.05;;
35877;SDS011;21982;49.804;24.072;2024-03-08T03:12:43;22.08;;;11.13;;
35877;SDS011;21982;49.804;24.072;2024-03-08T03:15:19;37.85;;;18.15;;
35877;SDS011;21982;49.804;24.072;2024-03-08T03:17:49;28.88;;;15.23;;
35877;SDS011;21982;49.804;24.072;2024-03-08T03:20:18;27.55;;;14.63;;
35877;SDS011;21982;49.804;24.072;2024-03-08T03:22:57;25.58;;;12.82;;
35877;SDS011;21982;49.804;24.072;2024-03-08T03:25:23;29.52;;;13.50;;
35877;SDS011;21982;49.804;24.072;2024-03-08T03:27:51;25.63;;;12.65;;
35877;SDS011;21982;49.804;24.072;2024-03-08T03:30:17;29.65;;;12.43;;
35877;SDS011;21982;49.804;24.072;2024-03-08T03:32:51;22.70;;;11.10;;
35877;SDS011;21982;49.804;24.072;2024-03-08T03:35:17;20.17;;;10.05;;
35877;SDS011;21982;49.804;24.072;2024-03-08T03:37:43;20.92;;;11.32;;
35877;SDS011;21982;49.804;24.072;2024-03-08T03:40:26;23.30;;;10.38;;
35877;SDS011;21982;49.804;24.072;2024-03-08T03:42:52;17.48;;;10.15;;
35877;SDS011;21982;49.804;24.072;2024-03-08T03:45:18;21.13;;;10.65;;
35877;SDS011;21982;49.804;24.072;2024-03-08T03:47:45;25.17;;;10.07;;
35877;SDS011;21982;49.804;24.072;2024-03-08T03:50:10;21.63;;;11.18;;
35877;SDS011;21982;49.804;24.072;2024-03-08T03:52:36;25.15;;;11.30;;
35877;SDS011;21982;49.804;24.072;2024-03-08T03:55:02;22.30;;;11.25;;
35877;SDS011;21982;49.804;24.072;2024-03-08T03:57:29;27.23;;;12.63;;
35877;SDS011;21982;49.804;24.072;2024-03-08T03:59:55;22.38;;;9.90;;
35877;SDS011;21982;49.804;24.072;2024-03-08T04:02:20;25.92;;;11.13;;
35877;SDS011;21982;49.804;24.072;2024-03-08T04:04:47;23.75;;;12.60;;
35877;SDS011;21982;49.804;24.072;2024-03-08T04:07:12;23.08;;;10.45;;
35877;SDS011;21982;49.804;24.072;2024-03-08T04:09:38;21.85;;;11.55;;
35877;SDS011;21982;49.804;24.072;2024-03-08T04:12:04;22.45;;;11.52;;
35877;SDS011;21982;49.804;24.072;2024-03-08T04:14:29;23.17;;;11.82;;
35877;SDS011;21982;49.804;24.072;2024-03-08T04:16:55;27.42;;;12.45;;
35877;SDS011;21982;49.804;24.072;2024-03-08T04:19:20;27.08;;;12.48;;
35877;SDS011;21982;49.804;24.072;2024-03-08T04:21:46;25.52;;;13.15;;
35877;SDS011;21982;49.804;24.072;2024-03-08T04:24:12;22.88;;;10.68;;
35877;SDS011;21982;49.804;24.072;2024-03-08T04:26:37;22.58;;;11.88;;
35877;SDS011;21982;49.804;24.072;2024-03-08T04:29:03;23.63;;;10.85;;
35877;SDS011;21982;49.804;24.072;2024-03-08T04:31:28;20.83;;;10.43;;
35877;SDS011;21982;49.804;24.072;2024-03-08T04:33:56;21.58;;;11.27;;
35877;SDS011;21982;49.804;24.072;2024-03-08T04:36:23;20.20;;;10.77;;
35877;SDS011;21982;49.804;24.072;2024-03-08T04:38:49;24.63;;;12.57;;
35877;SDS011;21982;49.804;24.072;2024-03-08T04:41:16;22.33;;;11.27;;
35877;SDS011;21982;49.804;24.072;2024-03-08T04:43:42;27.02;;;12.18;;
35877;SDS011;21982;49.804;24.072;2024-03-08T04:46:09;27.20;;;12.20;;
35877;SDS011;21982;49.804;24.072;2024-03-08T04:48:34;21.67;;;12.40;;
35877;SDS011;21982;49.804;24.072;2024-03-08T04:51:02;22.77;;;11.67;;
35877;SDS011;21982;49.804;24.072;2024-03-08T04:53:29;22.77;;;12.98;;
35877;SDS011;21982;49.804;24.072;2024-03-08T04:55:54;22.52;;;12.27;;
35877;SDS011;21982;49.804;24.072;2024-03-08T04:58:22;30.20;;;14.00;;
35877;SDS011;21982;49.804;24.072;2024-03-08T05:00:49;31.43;;;14.40;;
35877;SDS011;21982;49.804;24.072;2024-03-08T05:03:15;30.53;;;16.20;;
35877;SDS011;21982;49.804;24.072;2024-03-08T05:05:41;36.20;;;16.83;;
35877;SDS011;21982;49.804;24.072;2024-03-08T05:08:06;31.77;;;16.40;;
35877;SDS011;21982;49.804;24.072;2024-03-08T05:10:33;32.00;;;16.90;;
35877;SDS011;21982;49.804;24.072;2024-03-08T05:12:59;30.83;;;15.70;;
35877;SDS011;21982;49.804;24.072;2024-03-08T05:15:26;28.23;;;14.77;;
35877;SDS011;21982;49.804;24.072;2024-03-08T05:17:51;31.40;;;17.13;;
35877;SDS011;21982;49.804;24.072;2024-03-08T05:20:17;31.93;;;17.57;;
35877;SDS011;21982;49.804;24.072;2024-03-08T05:22:44;33.70;;;16.97;;
35877;SDS011;21982;49.804;24.072;2024-03-08T05:25:11;33.10;;;17.43;;
35877;SDS011;21982;49.804;24.072;2024-03-08T05:27:39;48.83;;;24.55;;
35877;SDS011;21982;49.804;24.072;2024-03-08T05:30:05;58.25;;;33.28;;
35877;SDS011;21982;49.804;24.072;2024-03-08T05:32:31;66.88;;;36.92;;
35877;SDS011;21982;49.804;24.072;2024-03-08T05:34:57;59.85;;;33.72;;
35877;SDS011;21982;49.804;24.072;2024-03-08T05:37:22;61.50;;;31.60;;
35877;SDS011;21982;49.804;24.072;2024-03-08T05:39:48;56.40;;;31.20;;
35877;SDS011;21982;49.804;24.072;2024-03-08T05:42:13;41.37;;;24.10;;
35877;SDS011;21982;49.804;24.072;2024-03-08T05:44:39;37.85;;;21.75;;
35877;SDS011;21982;49.804;24.072;2024-03-08T05:47:05;34.33;;;19.07;;
35877;SDS011;21982;49.804;24.072;2024-03-08T05:49:32;33.10;;;18.20;;
35877;SDS011;21982;49.804;24.072;2024-03-08T05:51:57;33.17;;;17.57;;
35877;SDS011;21982;49.804;24.072;2024-03-08T05:54:22;30.80;;;17.13;;
35877;SDS011;21982;49.804;24.072;2024-03-08T05:56:49;31.57;;;17.97;;
35877;SDS011;21982;49.804;24.072;2024-03-08T05:59:17;40.45;;;20.45;;
35877;SDS011;21982;49.804;24.072;2024-03-08T06:01:43;36.97;;;20.70;;
35877;SDS011;21982;49.804;24.072;2024-03-08T06:04:11;36.40;;;17.87;;
35877;SDS011;21982;49.804;24.072;2024-03-08T06:06:36;31.40;;;17.70;;
35877;SDS011;21982;49.804;24.072;2024-03-08T06:09:02;30.27;;;15.38;;
35877;SDS011;21982;49.804;24.072;2024-03-08T06:11:34;29.13;;;15.73;;
35877;SDS011;21982;49.804;24.072;2024-03-08T06:13:59;27.67;;;14.05;;
35877;SDS011;21982;49.804;24.072;2024-03-08T06:16:25;31.58;;;15.63;;
35877;SDS011;21982;49.804;24.072;2024-03-08T06:18:54;30.40;;;13.45;;
35877;SDS011;21982;49.804;24.072;2024-03-08T06:21:21;26.65;;;15.57;;
35877;SDS011;21982;49.804;24.072;2024-03-08T06:23:47;26.35;;;14.63;;
35877;SDS011;21982;49.804;24.072;2024-03-08T06:26:13;32.60;;;18.05;;
35877;SDS011;21982;49.804;24.072;2024-03-08T06:28:38;30.13;;;15.77;;
35877;SDS011;21982;49.804;24.072;2024-03-08T06:31:04;29.23;;;14.45;;
35877;SDS011;21982;49.804;24.072;2024-03-08T06:33:29;27.27;;;14.73;;
35877;SDS011;21982;49.804;24.072;2024-03-08T06:35:57;25.38;;;13.80;;
35877;SDS011;21982;49.804;24.072;2024-03-08T06:38:26;27.33;;;13.77;;
35877;SDS011;21982;49.804;24.072;2024-03-08T06:40:52;22.70;;;11.30;;
35877;SDS011;21982;49.804;24.072;2024-03-08T06:43:18;26.73;;;11.98;;
35877;SDS011;21982;49.804;24.072;2024-03-08T06:45:44;24.63;;;11.93;;
35877;SDS011;21982;49.804;24.072;2024-03-08T06:48:17;21.23;;;11.85;;
35877;SDS011;21982;49.804;24.072;2024-03-08T06:50:43;26.05;;;12.30;;
35877;SDS011;21982;49.804;24.072;2024-03-08T06:53:10;27.55;;;12.75;;
35877;SDS011;21982;49.804;24.072;2024-03-08T06:55:36;22.27;;;12.00;;
35877;SDS011;21982;49.804;24.072;2024-03-08T06:58:01;27.08;;;11.95;;
35877;SDS011;21982;49.804;24.072;2024-03-08T07:00:27;29.95;;;12.02;;
35877;SDS011;21982;49.804;24.072;2024-03-08T07:02:54;21.60;;;10.90;;
35877;SDS011;21982;49.804;24.072;2024-03-08T07:05:19;23.42;;;11.73;;
35877;SDS011;21982;49.804;24.072;2024-03-08T07:07:45;35.30;;;19.38;;
35877;SDS011;21982;49.804;24.072;2024-03-08T07:10:13;27.33;;;13.77;;
35877;SDS011;21982;49.804;24.072;2024-03-08T07:12:40;23.00;;;13.05;;
35877;SDS011;21982;49.804;24.072;2024-03-08T07:15:06;24.33;;;13.75;;
35877;SDS011;21982;49.804;24.072;2024-03-08T07:17:32;33.00;;;15.63;;
35877;SDS011;21982;49.804;24.072;2024-03-08T07:20:00;25.88;;;13.52;;
35877;SDS011;21982;49.804;24.072;2024-03-08T07:22:28;23.67;;;12.27;;
35877;SDS011;21982;49.804;24.072;2024-03-08T07:24:54;24.90;;;13.80;;
35877;SDS011;21982;49.804;24.072;2024-03-08T07:27:19;29.10;;;15.10;;
35877;SDS011;21982;49.804;24.072;2024-03-08T07:29:46;46.80;;;24.13;;
35877;SDS011;21982;49.804;24.072;2024-03-08T07:32:11;37.40;;;21.52;;
35877;SDS011;21982;49.804;24.072;2024-03-08T07:34:36;30.70;;;16.85;;
35877;SDS011;21982;49.804;24.072;2024-03-08T07:37:02;28.48;;;14.52;;
35877;SDS011;21982;49.804;24.072;2024-03-08T07:39:29;33.78;;;17.85;;
35877;SDS011;21982;49.804;24.072;2024-03-08T07:41:54;27.85;;;17.38;;
35877;SDS011;21982;49.804;24.072;2024-03-08T07:44:20;29.77;;;16.13;;
35877;SDS011;21982;49.804;24.072;2024-03-08T07:46:45;26.35;;;14.05;;
35877;SDS011;21982;49.804;24.072;2024-03-08T07:49:11;21.98;;;12.88;;
35877;SDS011;21982;49.804;24.072;2024-03-08T07:51:37;25.73;;;13.38;;
35877;SDS011;21982;49.804;24.072;2024-03-08T07:54:03;20.63;;;11.48;;
35877;SDS011;21982;49.804;24.072;2024-03-08T07:56:34;24.80;;;12.48;;
35877;SDS011;21982;49.804;24.072;2024-03-08T07:59:01;43.22;;;18.88;;
35877;SDS011;21982;49.804;24.072;2024-03-08T08:01:28;25.52;;;12.93;;
35877;SDS011;21982;49.804;24.072;2024-03-08T08:03:55;25.42;;;13.63;;
35877;SDS011;21982;49.804;24.072;2024-03-08T08:06:21;29.15;;;13.93;;
35877;SDS011;21982;49.804;24.072;2024-03-08T08:08:47;23.02;;;12.85;;
35877;SDS011;21982;49.804;24.072;2024-03-08T08:11:12;26.88;;;13.23;;
35877;SDS011;21982;49.804;24.072;2024-03-08T08:13:37;22.50;;;11.70;;
35877;SDS011;21982;49.804;24.072;2024-03-08T08:16:04;24.48;;;12.52;;
35877;SDS011;21982;49.804;24.072;2024-03-08T08:18:31;23.60;;;12.68;;
35877;SDS011;21982;49.804;24.072;2024-03-08T08:20:58;20.60;;;11.52;;
35877;SDS011;21982;49.804;24.072;2024-03-08T08:23:25;25.17;;;12.35;;
35877;SDS011;21982;49.804;24.072;2024-03-08T08:25:50;26.30;;;13.38;;
35877;SDS011;21982;49.804;24.072;2024-03-08T08:28:16;29.48;;;13.25;;
35877;SDS011;21982;49.804;24.072;2024-03-08T08:30:45;27.40;;;13.50;;
35877;SDS011;21982;49.804;24.072;2024-03-08T08:33:11;29.27;;;13.27;;
35877;SDS011;21982;49.804;24.072;2024-03-08T08:35:36;32.53;;;13.75;;
35877;SDS011;21982;49.804;24.072;2024-03-08T08:38:04;43.60;;;17.25;;
35877;SDS011;21982;49.804;24.072;2024-03-08T08:40:30;34.83;;;15.95;;
35877;SDS011;21982;49.804;24.072;2024-03-08T08:42:57;31.05;;;15.70;;
35877;SDS011;21982;49.804;24.072;2024-03-08T08:45:23;29.83;;;13.77;;
35877;SDS011;21982;49.804;24.072;2024-03-08T08:47:49;27.67;;;15.02;;
35877;SDS011;21982;49.804;24.072;2024-03-08T08:50:15;27.52;;;14.27;;
35877;SDS011;21982;49.804;24.072;2024-03-08T08:52:41;28.60;;;14.40;;
35877;SDS011;21982;49.804;24.072;2024-03-08T08:55:09;31.05;;;16.35;;
35877;SDS011;21982;49.804;24.072;2024-03-08T08:57:39;25.15;;;13.90;;
35877;SDS011;21982;49.804;24.072;2024-03-08T09:00:05;29.15;;;14.05;;
35877;SDS011;21982;49.804;24.072;2024-03-08T09:02:39;25.35;;;13.68;;
35877;SDS011;21982;49.804;24.072;2024-03-08T09:05:06;26.50;;;13.13;;
35877;SDS011;21982;49.804;24.072;2024-03-08T09:07:33;31.20;;;15.02;;
35877;SDS011;21982;49.804;24.072;2024-03-08T09:09:58;25.15;;;14.32;;
35877;SDS011;21982;49.804;24.072;2024-03-08T09:12:25;26.75;;;12.93;;
35877;SDS011;21982;49.804;24.072;2024-03-08T09:14:50;24.10;;;14.18;;
35877;SDS011;21982;49.804;24.072;2024-03-08T09:17:15;25.27;;;13.35;;
35877;SDS011;21982;49.804;24.072;2024-03-08T09:19:48;31.45;;;14.60;;
35877;SDS011;21982;49.804;24.072;2024-03-08T09:22:14;30.05;;;14.43;;
35877;SDS011;21982;49.804;24.072;2024-03-08T09:24:39;42.58;;;20.08;;
35877;SDS011;21982;49.804;24.072;2024-03-08T09:27:05;29.95;;;14.93;;
35877;SDS011;21982;49.804;24.072;2024-03-08T09:29:30;38.45;;;21.88;;
35877;SDS011;21982;49.804;24.072;2024-03-08T09:31:56;30.40;;;18.95;;
35877;SDS011;21982;49.804;24.072;2024-03-08T09:34:22;25.42;;;15.27;;
35877;SDS011;21982;49.804;24.072;2024-03-08T09:36:48;27.00;;;13.65;;
35877;SDS011;21982;49.804;24.072;2024-03-08T09:39:15;31.08;;;14.95;;
35877;SDS011;21982;49.804;24.072;2024-03-08T09:41:44;26.77;;;14.20;;
35877;SDS011;21982;49.804;24.072;2024-03-08T09:44:13;27.77;;;12.48;;
35877;SDS011;21982;49.804;24.072;2024-03-08T09:46:39;26.38;;;12.70;;
35877;SDS011;21982;49.804;24.072;2024-03-08T09:49:05;25.25;;;12.30;;
35877;SDS011;21982;49.804;24.072;2024-03-08T09:51:33;25.13;;;13.48;;
35877;SDS011;21982;49.804;24.072;2024-03-08T09:54:00;27.77;;;14.15;;
35877;SDS011;21982;49.804;24.072;2024-03-08T09:56:26;25.77;;;14.43;;
35877;SDS011;21982;49.804;24.072;2024-03-08T09:58:52;26.65;;;14.43;;
35877;SDS011;21982;49.804;24.072;2024-03-08T10:01:30;23.73;;;13.02;;
35877;SDS011;21982;49.804;24.072;2024-03-08T10:03:56;43.42;;;14.88;;
35877;SDS011;21982;49.804;24.072;2024-03-08T10:06:22;27.77;;;13.52;;
35877;SDS011;21982;49.804;24.072;2024-03-08T10:08:49;24.00;;;14.25;;
35877;SDS011;21982;49.804;24.072;2024-03-08T10:11:17;26.95;;;12.65;;
35877;SDS011;21982;49.804;24.072;2024-03-08T10:13:42;25.90;;;13.60;;
35877;SDS011;21982;49.804;24.072;2024-03-08T10:16:11;25.88;;;13.75;;
35877;SDS011;21982;49.804;24.072;2024-03-08T10:18:37;25.00;;;14.02;;
35877;SDS011;21982;49.804;24.072;2024-03-08T10:21:03;31.80;;;14.25;;
35877;SDS011;21982;49.804;24.072;2024-03-08T10:26:24;29.33;;;16.83;;
35877;SDS011;21982;49.804;24.072;2024-03-08T10:28:51;22.15;;;13.10;;
35877;SDS011;21982;49.804;24.072;2024-03-08T10:31:19;27.27;;;14.15;;
35877;SDS011;21982;49.804;24.072;2024-03-08T10:33:48;25.25;;;13.45;;
35877;SDS011;21982;49.804;24.072;2024-03-08T10:36:14;22.42;;;13.48;;
35877;SDS011;21982;49.804;24.072;2024-03-08T10:38:41;25.30;;;14.52;;
35877;SDS011;21982;49.804;24.072;2024-03-08T10:41:14;24.30;;;13.13;;
35877;SDS011;21982;49.804;24.072;2024-03-08T10:46:14;24.80;;;13.27;;
35877;SDS011;21982;49.804;24.072;2024-03-08T10:48:48;25.33;;;12.07;;
35877;SDS011;21982;49.804;24.072;2024-03-08T10:51:15;24.88;;;13.38;;
35877;SDS011;21982;49.804;24.072;2024-03-08T10:53:41;20.73;;;14.02;;
35877;SDS011;21982;49.804;24.072;2024-03-08T10:56:09;17.35;;;10.95;;
35877;SDS011;21982;49.804;24.072;2024-03-08T10:58:35;19.95;;;11.93;;
35877;SDS011;21982;49.804;24.072;2024-03-08T11:01:02;22.15;;;10.95;;
35877;SDS011;21982;49.804;24.072;2024-03-08T11:06:09;23.25;;;12.50;;
35877;SDS011;21982;49.804;24.072;2024-03-08T11:08:40;18.38;;;10.15;;
35877;SDS011;21982;49.804;24.072;2024-03-08T11:11:05;25.50;;;11.43;;
35877;SDS011;21982;49.804;24.072;2024-03-08T11:13:48;17.63;;;9.63;;
35877;SDS011;21982;49.804;24.072;2024-03-08T11:18:54;18.65;;;9.50;;
35877;SDS011;21982;49.804;24.072;2024-03-08T11:21:43;16.50;;;9.80;;
35877;SDS011;21982;49.804;24.072;2024-03-08T11:24:10;21.05;;;9.32;;
35877;SDS011;21982;49.804;24.072;2024-03-08T11:26:38;16.17;;;9.45;;
35877;SDS011;21982;49.804;24.072;2024-03-08T11:32:10;31.10;;;13.23;;
35877;SDS011;21982;49.804;24.072;2024-03-08T11:34:36;25.13;;;9.65;;
35877;SDS011;21982;49.804;24.072;2024-03-08T11:37:16;21.63;;;8.93;;
35877;SDS011;21982;49.804;24.072;2024-03-08T11:39:46;15.82;;;8.90;;
35877;SDS011;21982;49.804;24.072;2024-03-08T11:42:15;21.38;;;10.02;;
35877;SDS011;21982;49.804;24.072;2024-03-08T11:44:42;16.55;;;9.80;;
35877;SDS011;21982;49.804;24.072;2024-03-08T11:47:09;20.02;;;9.82;;
35877;SDS011;21982;49.804;24.072;2024-03-08T11:49:36;17.00;;;8.75;;
35877;SDS011;21982;49.804;24.072;2024-03-08T11:52:02;20.42;;;9.55;;
35877;SDS011;21982;49.804;24.072;2024-03-08T11:54:28;16.33;;;10.52;;
35877;SDS011;21982;49.804;24.072;2024-03-08T11:56:55;22.17;;;10.35;;
35877;SDS011;21982;49.804;24.072;2024-03-08T11:59:25;17.38;;;10.07;;
35877;SDS011;21982;49.804;24.072;2024-03-08T12:02:02;18.63;;;10.07;;
35877;SDS011;21982;49.804;24.072;2024-03-08T12:04:29;16.50;;;8.57;;
35877;SDS011;21982;49.804;24.072;2024-03-08T12:06:55;15.85;;;8.30;;
35877;SDS011;21982;49.804;24.072;2024-03-08T12:09:24;18.27;;;10.07;;
35877;SDS011;21982;49.804;24.072;2024-03-08T12:11:50;15.05;;;7.80;;
35877;SDS011;21982;49.804;24.072;2024-03-08T12:14:16;13.75;;;7.32;;
35877;SDS011;21982;49.804;24.072;2024-03-08T12:16:42;15.60;;;7.05;;
35877;SDS011;21982;49.804;24.072;2024-03-08T12:19:08;14.45;;;7.55;;
35877;SDS011;21982;49.804;24.072;2024-03-08T12:21:35;14.95;;;8.50;;
35877;SDS011;21982;49.804;24.072;2024-03-08T12:24:07;27.13;;;8.10;;
35877;SDS011;21982;49.804;24.072;2024-03-08T12:26:35;14.45;;;7.22;;
35877;SDS011;21982;49.804;24.072;2024-03-08T12:31:58;12.02;;;6.55;;
35877;SDS011;21982;49.804;24.072;2024-03-08T12:34:26;14.57;;;7.32;;
35877;SDS011;21982;49.804;24.072;2024-03-08T12:36:57;15.32;;;7.40;;
35877;SDS011;21982;49.804;24.072;2024-03-08T12:39:23;14.52;;;7.85;;
35877;SDS011;21982;49.804;24.072;2024-03-08T12:41:54;18.73;;;9.10;;
35877;SDS011;21982;49.804;24.072;2024-03-08T12:44:25;19.13;;;10.23;;
35877;SDS011;21982;49.804;24.072;2024-03-08T12:46:53;15.02;;;6.50;;
35877;SDS011;21982;49.804;24.072;2024-03-08T12:49:21;13.13;;;7.50;;
35877;SDS011;21982;49.804;24.072;2024-03-08T12:51:50;12.18;;;7.03;;
35877;SDS011;21982;49.804;24.072;2024-03-08T12:54:17;14.93;;;7.18;;
35877;SDS011;21982;49.804;24.072;2024-03-08T12:56:42;16.55;;;9.07;;
35877;SDS011;21982;49.804;24.072;2024-03-08T12:59:08;26.98;;;11.43;;
35877;SDS011;21982;49.804;24.072;2024-03-08T13:01:34;20.02;;;10.90;;
35877;SDS011;21982;49.804;24.072;2024-03-08T13:04:02;24.45;;;12.18;;
35877;SDS011;21982;49.804;24.072;2024-03-08T13:06:29;20.85;;;9.00;;
35877;SDS011;21982;49.804;24.072;2024-03-08T13:08:56;13.02;;;7.22;;
35877;SDS011;21982;49.804;24.072;2024-03-08T13:11:22;15.50;;;8.27;;
35877;SDS011;21982;49.804;24.072;2024-03-08T13:13:48;16.55;;;8.82;;
35877;SDS011;21982;49.804;24.072;2024-03-08T13:16:14;16.23;;;9.07;;
35877;SDS011;21982;49.804;24.072;2024-03-08T13:18:40;14.90;;;8.38;;
35877;SDS011;21982;49.804;24.072;2024-03-08T13:21:09;18.02;;;7.85;;
35877;SDS011;21982;49.804;24.072;2024-03-08T13:23:36;14.77;;;8.07;;
35877;SDS011;21982;49.804;24.072;2024-03-08T13:26:08;14.38;;;7.80;;
35877;SDS011;21982;49.804;24.072;2024-03-08T13:28:37;16.02;;;6.65;;
35877;SDS011;21982;49.804;24.072;2024-03-08T13:31:05;15.63;;;7.45;;
35877;SDS011;21982;49.804;24.072;2024-03-08T13:33:37;25.48;;;12.40;;
35877;SDS011;21982;49.804;24.072;2024-03-08T13:36:04;16.85;;;8.70;;
35877;SDS011;21982;49.804;24.072;2024-03-08T13:38:39;18.15;;;10.07;;
35877;SDS011;21982;49.804;24.072;2024-03-08T13:41:07;14.82;;;7.75;;
35877;SDS011;21982;49.804;24.072;2024-03-08T13:43:33;18.33;;;8.32;;
35877;SDS011;21982;49.804;24.072;2024-03-08T13:45:59;17.60;;;8.95;;
35877;SDS011;21982;49.804;24.072;2024-03-08T13:48:24;16.38;;;8.38;;
35877;SDS011;21982;49.804;24.072;2024-03-08T13:50:50;17.00;;;8.18;;
35877;SDS011;21982;49.804;24.072;2024-03-08T13:53:16;16.38;;;8.27;;
35877;SDS011;21982;49.804;24.072;2024-03-08T13:55:42;19.33;;;8.57;;
35877;SDS011;21982;49.804;24.072;2024-03-08T13:58:09;17.05;;;9.25;;
35877;SDS011;21982;49.804;24.072;2024-03-08T14:00:35;26.20;;;10.18;;
35877;SDS011;21982;49.804;24.072;2024-03-08T14:03:06;19.92;;;9.57;;
35877;SDS011;21982;49.804;24.072;2024-03-08T14:05:32;19.15;;;9.75;;
35877;SDS011;21982;49.804;24.072;2024-03-08T14:08:00;18.35;;;8.73;;
35877;SDS011;21982;49.804;24.072;2024-03-08T14:10:29;22.98;;;9.88;;
35877;SDS011;21982;49.804;24.072;2024-03-08T14:12:56;19.52;;;8.85;;
35877;SDS011;21982;49.804;24.072;2024-03-08T14:15:22;15.38;;;8.63;;
35877;SDS011;21982;49.804;24.072;2024-03-08T14:17:53;19.90;;;9.82;;
35877;SDS011;21982;49.804;24.072;2024-03-08T14:20:20;18.02;;;9.38;;
35877;SDS011;21982;49.804;24.072;2024-03-08T14:22:50;21.20;;;10.98;;
35877;SDS011;21982;49.804;24.072;2024-03-08T14:25:19;18.25;;;8.38;;
35877;SDS011;21982;49.804;24.072;2024-03-08T14:27:45;22.35;;;10.27;;